sensor_id;sensor_type;location;lat;lon;timestamp;P1;durP1;ratioP1;P2;durP2;ratioP2
10246;SDS011;5168;47.854;7.944;2023-03-01T00:02:00;12.50;;;9.80;;
10246;SDS011;5168;47.854;7.944;2023-03-01T00:04:26;15.20;;;9.90;;
10246;SDS011;5168;47.854;7.944;2023-03-01T00:06:52;13.97;;;10.10;;
10246;SDS011;5168;47.854;7.944;2023-03-01T00:09:18;13.63;;;10.13;;
10246;SDS011;5168;47.854;7.944;2023-03-01T00:11:44;16.43;;;9.90;;
10246;SDS011;5168;47.854;7.944;2023-03-01T00:14:10;15.40;;;10.70;;
10246;SDS011;5168;47.854;7.944;2023-03-01T00:16:37;15.40;;;10.53;;
10246;SDS011;5168;47.854;7.944;2023-03-01T00:19:04;14.50;;;10.40;;
10246;SDS011;5168;47.854;7.944;2023-03-01T00:21:30;14.07;;;10.17;;
10246;SDS011;5168;47.854;7.944;2023-03-01T00:23:56;13.47;;;9.63;;
10246;SDS011;5168;47.854;7.944;2023-03-01T00:26:23;16.87;;;11.13;;
10246;SDS011;5168;47.854;7.944;2023-03-01T00:28:49;15.67;;;10.87;;
10246;SDS011;5168;47.854;7.944;2023-03-01T00:31:17;16.53;;;10.83;;
10246;SDS011;5168;47.854;7.944;2023-03-01T00:33:46;12.77;;;9.97;;
10246;SDS011;5168;47.854;7.944;2023-03-01T00:36:13;14.90;;;10.73;;
10246;SDS011;5168;47.854;7.944;2023-03-01T00:38:41;14.90;;;10.50;;
10246;SDS011;5168;47.854;7.944;2023-03-01T00:41:09;14.43;;;10.80;;
10246;SDS011;5168;47.854;7.944;2023-03-01T00:43:37;15.50;;;11.20;;
10246;SDS011;5168;47.854;7.944;2023-03-01T00:46:04;15.73;;;10.17;;
10246;SDS011;5168;47.854;7.944;2023-03-01T00:48:40;15.67;;;10.97;;
10246;SDS011;5168;47.854;7.944;2023-03-01T00:51:10;13.87;;;9.90;;
10246;SDS011;5168;47.854;7.944;2023-03-01T00:53:38;16.93;;;10.17;;
10246;SDS011;5168;47.854;7.944;2023-03-01T00:56:04;12.67;;;9.70;;
10246;SDS011;5168;47.854;7.944;2023-03-01T00:58:31;14.87;;;10.47;;
10246;SDS011;5168;47.854;7.944;2023-03-01T01:00:57;15.87;;;9.33;;
10246;SDS011;5168;47.854;7.944;2023-03-01T01:03:22;13.50;;;10.40;;
10246;SDS011;5168;47.854;7.944;2023-03-01T01:05:50;16.73;;;9.87;;
10246;SDS011;5168;47.854;7.944;2023-03-01T01:08:19;12.03;;;8.97;;
10246;SDS011;5168;47.854;7.944;2023-03-01T01:10:46;13.17;;;9.67;;
10246;SDS011;5168;47.854;7.944;2023-03-01T01:13:12;13.13;;;10.13;;
10246;SDS011;5168;47.854;7.944;2023-03-01T01:15:38;14.67;;;10.57;;
10246;SDS011;5168;47.854;7.944;2023-03-01T01:18:04;14.70;;;10.23;;
10246;SDS011;5168;47.854;7.944;2023-03-01T01:20:30;15.83;;;9.83;;
10246;SDS011;5168;47.854;7.944;2023-03-01T01:22:56;14.50;;;10.53;;
10246;SDS011;5168;47.854;7.944;2023-03-01T01:25:21;13.07;;;9.80;;
10246;SDS011;5168;47.854;7.944;2023-03-01T01:27:49;16.93;;;10.40;;
10246;SDS011;5168;47.854;7.944;2023-03-01T01:30:15;15.10;;;9.80;;
10246;SDS011;5168;47.854;7.944;2023-03-01T01:32:41;11.93;;;9.23;;
10246;SDS011;5168;47.854;7.944;2023-03-01T01:35:07;13.57;;;9.23;;
10246;SDS011;5168;47.854;7.944;2023-03-01T01:37:33;14.37;;;9.57;;
10246;SDS011;5168;47.854;7.944;2023-03-01T01:39:58;14.13;;;10.37;;
10246;SDS011;5168;47.854;7.944;2023-03-01T01:42:24;13.47;;;9.93;;
10246;SDS011;5168;47.854;7.944;2023-03-01T01:47:52;15.10;;;10.07;;
10246;SDS011;5168;47.854;7.944;2023-03-01T01:50:20;17.37;;;11.23;;
10246;SDS011;5168;47.854;7.944;2023-03-01T01:52:46;11.30;;;9.17;;
10246;SDS011;5168;47.854;7.944;2023-03-01T01:55:19;13.63;;;9.17;;
10246;SDS011;5168;47.854;7.944;2023-03-01T01:57:49;10.67;;;8.60;;
10246;SDS011;5168;47.854;7.944;2023-03-01T02:00:19;12.80;;;8.63;;
10246;SDS011;5168;47.854;7.944;2023-03-01T02:02:49;12.47;;;9.40;;
10246;SDS011;5168;47.854;7.944;2023-03-01T02:08:18;13.47;;;10.03;;
10246;SDS011;5168;47.854;7.944;2023-03-01T02:10:46;14.73;;;10.57;;
10246;SDS011;5168;47.854;7.944;2023-03-01T02:13:14;16.47;;;10.03;;
10246;SDS011;5168;47.854;7.944;2023-03-01T02:15:40;14.43;;;10.17;;
10246;SDS011;5168;47.854;7.944;2023-03-01T02:18:06;14.30;;;9.93;;
10246;SDS011;5168;47.854;7.944;2023-03-01T02:22:58;15.40;;;10.70;;
10246;SDS011;5168;47.854;7.944;2023-03-01T02:25:27;13.63;;;10.23;;
10246;SDS011;5168;47.854;7.944;2023-03-01T02:30:30;16.33;;;9.10;;
10246;SDS011;5168;47.854;7.944;2023-03-01T02:32:57;13.60;;;9.87;;
10246;SDS011;5168;47.854;7.944;2023-03-01T02:35:27;13.63;;;9.40;;
10246;SDS011;5168;47.854;7.944;2023-03-01T02:37:55;11.83;;;9.33;;
10246;SDS011;5168;47.854;7.944;2023-03-01T02:40:22;13.93;;;10.00;;
10246;SDS011;5168;47.854;7.944;2023-03-01T02:42:50;17.57;;;12.23;;
10246;SDS011;5168;47.854;7.944;2023-03-01T02:45:20;19.23;;;12.67;;
10246;SDS011;5168;47.854;7.944;2023-03-01T02:47:46;16.73;;;11.73;;
10246;SDS011;5168;47.854;7.944;2023-03-01T02:50:15;15.40;;;11.10;;
10246;SDS011;5168;47.854;7.944;2023-03-01T02:55:19;16.37;;;11.20;;
10246;SDS011;5168;47.854;7.944;2023-03-01T02:57:45;17.60;;;11.67;;
10246;SDS011;5168;47.854;7.944;2023-03-01T03:00:19;17.10;;;10.67;;
10246;SDS011;5168;47.854;7.944;2023-03-01T03:02:51;15.83;;;11.47;;
10246;SDS011;5168;47.854;7.944;2023-03-01T03:05:19;14.20;;;10.80;;
10246;SDS011;5168;47.854;7.944;2023-03-01T03:07:47;18.67;;;11.80;;
10246;SDS011;5168;47.854;7.944;2023-03-01T03:10:15;16.67;;;11.00;;
10246;SDS011;5168;47.854;7.944;2023-03-01T03:12:49;16.57;;;11.60;;
10246;SDS011;5168;47.854;7.944;2023-03-01T03:15:16;18.33;;;12.03;;
10246;SDS011;5168;47.854;7.944;2023-03-01T03:17:42;15.83;;;11.20;;
10246;SDS011;5168;47.854;7.944;2023-03-01T03:20:08;14.70;;;10.10;;
10246;SDS011;5168;47.854;7.944;2023-03-01T03:22:40;17.57;;;10.97;;
10246;SDS011;5168;47.854;7.944;2023-03-01T03:25:09;17.13;;;11.53;;
10246;SDS011;5168;47.854;7.944;2023-03-01T03:27:35;18.37;;;12.30;;
10246;SDS011;5168;47.854;7.944;2023-03-01T03:30:03;15.80;;;11.20;;
10246;SDS011;5168;47.854;7.944;2023-03-01T03:32:33;17.70;;;11.90;;
10246;SDS011;5168;47.854;7.944;2023-03-01T03:35:00;18.57;;;12.00;;
10246;SDS011;5168;47.854;7.944;2023-03-01T03:37:25;17.47;;;12.17;;
10246;SDS011;5168;47.854;7.944;2023-03-01T03:40:09;18.17;;;12.03;;
10246;SDS011;5168;47.854;7.944;2023-03-01T03:42:40;22.20;;;13.33;;
10246;SDS011;5168;47.854;7.944;2023-03-01T03:45:06;17.37;;;11.77;;
10246;SDS011;5168;47.854;7.944;2023-03-01T03:47:32;17.57;;;12.60;;
10246;SDS011;5168;47.854;7.944;2023-03-01T03:49:58;21.57;;;14.47;;
10246;SDS011;5168;47.854;7.944;2023-03-01T03:52:23;16.83;;;11.83;;
10246;SDS011;5168;47.854;7.944;2023-03-01T03:54:49;20.50;;;12.77;;
10246;SDS011;5168;47.854;7.944;2023-03-01T03:57:14;17.23;;;12.73;;
10246;SDS011;5168;47.854;7.944;2023-03-01T03:59:40;20.03;;;13.37;;
10246;SDS011;5168;47.854;7.944;2023-03-01T04:02:06;21.03;;;13.37;;
10246;SDS011;5168;47.854;7.944;2023-03-01T04:04:33;18.30;;;12.53;;
10246;SDS011;5168;47.854;7.944;2023-03-01T04:06:59;20.47;;;12.83;;
10246;SDS011;5168;47.854;7.944;2023-03-01T04:09:25;18.27;;;12.97;;
10246;SDS011;5168;47.854;7.944;2023-03-01T04:11:51;19.70;;;13.37;;
10246;SDS011;5168;47.854;7.944;2023-03-01T04:14:16;19.87;;;12.37;;
10246;SDS011;5168;47.854;7.944;2023-03-01T04:16:42;20.33;;;13.40;;
10246;SDS011;5168;47.854;7.944;2023-03-01T04:19:07;17.20;;;11.80;;
10246;SDS011;5168;47.854;7.944;2023-03-01T04:21:34;21.07;;;13.13;;
10246;SDS011;5168;47.854;7.944;2023-03-01T04:24:01;18.90;;;13.07;;
10246;SDS011;5168;47.854;7.944;2023-03-01T04:26:28;17.57;;;12.20;;
10246;SDS011;5168;47.854;7.944;2023-03-01T04:28:54;21.17;;;11.63;;
10246;SDS011;5168;47.854;7.944;2023-03-01T04:31:19;19.30;;;12.67;;
10246;SDS011;5168;47.854;7.944;2023-03-01T04:33:49;18.23;;;12.50;;
10246;SDS011;5168;47.854;7.944;2023-03-01T04:36:17;19.57;;;13.47;;
10246;SDS011;5168;47.854;7.944;2023-03-01T04:38:43;18.87;;;13.37;;
10246;SDS011;5168;47.854;7.944;2023-03-01T04:41:13;21.43;;;13.23;;
10246;SDS011;5168;47.854;7.944;2023-03-01T04:43:40;19.07;;;13.07;;
10246;SDS011;5168;47.854;7.944;2023-03-01T04:46:08;20.03;;;13.23;;
10246;SDS011;5168;47.854;7.944;2023-03-01T04:48:37;19.60;;;12.47;;
10246;SDS011;5168;47.854;7.944;2023-03-01T04:51:04;20.83;;;14.03;;
10246;SDS011;5168;47.854;7.944;2023-03-01T04:53:30;21.27;;;13.60;;
10246;SDS011;5168;47.854;7.944;2023-03-01T04:55:57;22.37;;;13.67;;
10246;SDS011;5168;47.854;7.944;2023-03-01T04:58:23;21.37;;;14.20;;
10246;SDS011;5168;47.854;7.944;2023-03-01T05:00:49;21.13;;;13.33;;
10246;SDS011;5168;47.854;7.944;2023-03-01T05:03:15;20.63;;;13.60;;
10246;SDS011;5168;47.854;7.944;2023-03-01T05:05:45;18.53;;;12.90;;
10246;SDS011;5168;47.854;7.944;2023-03-01T05:08:12;22.63;;;13.67;;
10246;SDS011;5168;47.854;7.944;2023-03-01T05:10:47;19.83;;;12.60;;
10246;SDS011;5168;47.854;7.944;2023-03-01T05:13:14;20.30;;;12.40;;
10246;SDS011;5168;47.854;7.944;2023-03-01T05:15:46;20.30;;;13.53;;
10246;SDS011;5168;47.854;7.944;2023-03-01T05:18:22;21.30;;;13.57;;
10246;SDS011;5168;47.854;7.944;2023-03-01T05:20:51;22.03;;;13.30;;
10246;SDS011;5168;47.854;7.944;2023-03-01T05:23:17;24.00;;;14.43;;
10246;SDS011;5168;47.854;7.944;2023-03-01T05:25:43;21.77;;;13.27;;
10246;SDS011;5168;47.854;7.944;2023-03-01T05:28:10;21.60;;;13.97;;
10246;SDS011;5168;47.854;7.944;2023-03-01T05:30:36;21.70;;;12.43;;
10246;SDS011;5168;47.854;7.944;2023-03-01T05:33:04;20.70;;;13.13;;
10246;SDS011;5168;47.854;7.944;2023-03-01T05:35:35;21.03;;;13.03;;
10246;SDS011;5168;47.854;7.944;2023-03-01T05:38:01;21.73;;;13.07;;
10246;SDS011;5168;47.854;7.944;2023-03-01T05:40:27;18.40;;;12.80;;
10246;SDS011;5168;47.854;7.944;2023-03-01T05:42:54;17.97;;;12.07;;
10246;SDS011;5168;47.854;7.944;2023-03-01T05:45:21;20.80;;;12.87;;
10246;SDS011;5168;47.854;7.944;2023-03-01T05:47:48;20.37;;;13.43;;
10246;SDS011;5168;47.854;7.944;2023-03-01T05:50:22;18.97;;;12.53;;
10246;SDS011;5168;47.854;7.944;2023-03-01T05:52:51;18.40;;;12.83;;
10246;SDS011;5168;47.854;7.944;2023-03-01T05:55:22;19.20;;;13.10;;
10246;SDS011;5168;47.854;7.944;2023-03-01T05:57:48;18.20;;;12.20;;
10246;SDS011;5168;47.854;7.944;2023-03-01T06:00:15;21.20;;;12.70;;
10246;SDS011;5168;47.854;7.944;2023-03-01T06:02:42;21.43;;;12.77;;
10246;SDS011;5168;47.854;7.944;2023-03-01T06:05:09;19.77;;;11.73;;
10246;SDS011;5168;47.854;7.944;2023-03-01T06:07:35;17.87;;;12.20;;
10246;SDS011;5168;47.854;7.944;2023-03-01T06:10:02;18.43;;;11.63;;
10246;SDS011;5168;47.854;7.944;2023-03-01T06:12:33;19.80;;;11.50;;
10246;SDS011;5168;47.854;7.944;2023-03-01T06:15:02;19.27;;;12.47;;
10246;SDS011;5168;47.854;7.944;2023-03-01T06:17:30;19.50;;;12.53;;
10246;SDS011;5168;47.854;7.944;2023-03-01T06:19:57;17.97;;;10.87;;
10246;SDS011;5168;47.854;7.944;2023-03-01T06:22:23;18.47;;;12.77;;
10246;SDS011;5168;47.854;7.944;2023-03-01T06:24:49;16.63;;;11.63;;
10246;SDS011;5168;47.854;7.944;2023-03-01T06:27:15;18.57;;;12.00;;
10246;SDS011;5168;47.854;7.944;2023-03-01T06:29:41;18.03;;;12.67;;
10246;SDS011;5168;47.854;7.944;2023-03-01T06:32:06;18.77;;;12.97;;
10246;SDS011;5168;47.854;7.944;2023-03-01T06:34:33;18.10;;;11.60;;
10246;SDS011;5168;47.854;7.944;2023-03-01T06:36:58;20.23;;;12.50;;
10246;SDS011;5168;47.854;7.944;2023-03-01T06:39:24;21.83;;;13.67;;
10246;SDS011;5168;47.854;7.944;2023-03-01T06:41:50;19.57;;;11.83;;
10246;SDS011;5168;47.854;7.944;2023-03-01T06:44:16;20.43;;;11.60;;
10246;SDS011;5168;47.854;7.944;2023-03-01T06:46:41;17.57;;;11.57;;
10246;SDS011;5168;47.854;7.944;2023-03-01T06:49:07;17.60;;;11.80;;
10246;SDS011;5168;47.854;7.944;2023-03-01T06:51:35;17.93;;;11.70;;
10246;SDS011;5168;47.854;7.944;2023-03-01T06:54:02;19.03;;;12.17;;
10246;SDS011;5168;47.854;7.944;2023-03-01T06:56:28;18.60;;;12.43;;
10246;SDS011;5168;47.854;7.944;2023-03-01T06:58:54;21.80;;;12.80;;
10246;SDS011;5168;47.854;7.944;2023-03-01T07:01:20;19.47;;;12.30;;
10246;SDS011;5168;47.854;7.944;2023-03-01T07:03:45;17.77;;;11.90;;
10246;SDS011;5168;47.854;7.944;2023-03-01T07:06:11;16.30;;;11.77;;
10246;SDS011;5168;47.854;7.944;2023-03-01T07:08:37;17.87;;;11.97;;
10246;SDS011;5168;47.854;7.944;2023-03-01T07:11:04;18.23;;;12.07;;
10246;SDS011;5168;47.854;7.944;2023-03-01T07:13:30;18.93;;;12.13;;
10246;SDS011;5168;47.854;7.944;2023-03-01T07:15:56;20.10;;;12.73;;
10246;SDS011;5168;47.854;7.944;2023-03-01T07:18:22;21.60;;;13.10;;
10246;SDS011;5168;47.854;7.944;2023-03-01T07:20:47;20.83;;;13.57;;
10246;SDS011;5168;47.854;7.944;2023-03-01T07:23:13;18.53;;;12.40;;
10246;SDS011;5168;47.854;7.944;2023-03-01T07:25:39;22.17;;;13.03;;
10246;SDS011;5168;47.854;7.944;2023-03-01T07:28:04;18.67;;;12.93;;
10246;SDS011;5168;47.854;7.944;2023-03-01T07:30:30;21.37;;;13.70;;
10246;SDS011;5168;47.854;7.944;2023-03-01T07:32:56;21.60;;;13.43;;
10246;SDS011;5168;47.854;7.944;2023-03-01T07:35:22;19.00;;;12.57;;
10246;SDS011;5168;47.854;7.944;2023-03-01T07:37:49;18.17;;;12.30;;
10246;SDS011;5168;47.854;7.944;2023-03-01T07:40:15;18.20;;;12.23;;
10246;SDS011;5168;47.854;7.944;2023-03-01T07:42:41;18.93;;;12.23;;
10246;SDS011;5168;47.854;7.944;2023-03-01T07:45:07;20.73;;;12.53;;
10246;SDS011;5168;47.854;7.944;2023-03-01T07:47:33;17.30;;;11.67;;
10246;SDS011;5168;47.854;7.944;2023-03-01T07:49:59;16.80;;;11.20;;
10246;SDS011;5168;47.854;7.944;2023-03-01T07:52:26;19.43;;;12.23;;
10246;SDS011;5168;47.854;7.944;2023-03-01T07:54:51;20.23;;;12.30;;
10246;SDS011;5168;47.854;7.944;2023-03-01T07:57:17;17.80;;;11.93;;
10246;SDS011;5168;47.854;7.944;2023-03-01T07:59:43;19.77;;;13.27;;
10246;SDS011;5168;47.854;7.944;2023-03-01T08:02:10;18.40;;;11.60;;
10246;SDS011;5168;47.854;7.944;2023-03-01T08:04:35;17.37;;;11.53;;
10246;SDS011;5168;47.854;7.944;2023-03-01T08:07:04;18.70;;;11.90;;
10246;SDS011;5168;47.854;7.944;2023-03-01T08:09:30;18.60;;;12.83;;
10246;SDS011;5168;47.854;7.944;2023-03-01T08:11:56;17.67;;;11.37;;
10246;SDS011;5168;47.854;7.944;2023-03-01T08:14:24;17.00;;;11.97;;
10246;SDS011;5168;47.854;7.944;2023-03-01T08:16:50;18.27;;;11.70;;
10246;SDS011;5168;47.854;7.944;2023-03-01T08:19:15;15.67;;;11.27;;
10246;SDS011;5168;47.854;7.944;2023-03-01T08:21:41;16.13;;;11.90;;
10246;SDS011;5168;47.854;7.944;2023-03-01T08:24:07;16.30;;;11.27;;
10246;SDS011;5168;47.854;7.944;2023-03-01T08:26:35;15.93;;;10.97;;
10246;SDS011;5168;47.854;7.944;2023-03-01T08:29:00;18.20;;;12.03;;
10246;SDS011;5168;47.854;7.944;2023-03-01T08:31:31;16.77;;;11.50;;
10246;SDS011;5168;47.854;7.944;2023-03-01T08:34:01;16.50;;;11.20;;
10246;SDS011;5168;47.854;7.944;2023-03-01T08:36:30;17.87;;;10.83;;
10246;SDS011;5168;47.854;7.944;2023-03-01T08:39:04;15.97;;;10.67;;
10246;SDS011;5168;47.854;7.944;2023-03-01T08:41:31;14.20;;;11.17;;
10246;SDS011;5168;47.854;7.944;2023-03-01T08:43:56;14.43;;;10.63;;
10246;SDS011;5168;47.854;7.944;2023-03-01T08:46:35;17.50;;;11.43;;
10246;SDS011;5168;47.854;7.944;2023-03-01T08:49:03;15.07;;;10.63;;
10246;SDS011;5168;47.854;7.944;2023-03-01T08:51:33;14.57;;;11.37;;
10246;SDS011;5168;47.854;7.944;2023-03-01T08:54:02;17.97;;;11.63;;
10246;SDS011;5168;47.854;7.944;2023-03-01T08:56:30;15.27;;;10.33;;
10246;SDS011;5168;47.854;7.944;2023-03-01T08:58:55;16.17;;;10.83;;
10246;SDS011;5168;47.854;7.944;2023-03-01T09:01:21;15.47;;;11.10;;
10246;SDS011;5168;47.854;7.944;2023-03-01T09:03:47;16.37;;;10.60;;
10246;SDS011;5168;47.854;7.944;2023-03-01T09:06:13;14.83;;;9.70;;
10246;SDS011;5168;47.854;7.944;2023-03-01T09:08:40;14.93;;;11.27;;
10246;SDS011;5168;47.854;7.944;2023-03-01T09:11:07;13.43;;;10.17;;
10246;SDS011;5168;47.854;7.944;2023-03-01T09:13:35;16.30;;;10.63;;
10246;SDS011;5168;47.854;7.944;2023-03-01T09:16:01;12.67;;;9.07;;
10246;SDS011;5168;47.854;7.944;2023-03-01T09:18:28;14.17;;;9.93;;
10246;SDS011;5168;47.854;7.944;2023-03-01T09:21:00;14.23;;;9.73;;
10246;SDS011;5168;47.854;7.944;2023-03-01T09:23:38;17.77;;;10.50;;
10246;SDS011;5168;47.854;7.944;2023-03-01T09:26:08;14.07;;;10.40;;
10246;SDS011;5168;47.854;7.944;2023-03-01T09:28:36;14.50;;;10.37;;
10246;SDS011;5168;47.854;7.944;2023-03-01T09:31:02;14.03;;;9.97;;
10246;SDS011;5168;47.854;7.944;2023-03-01T09:33:28;13.30;;;9.90;;
10246;SDS011;5168;47.854;7.944;2023-03-01T09:36:05;13.93;;;10.60;;
10246;SDS011;5168;47.854;7.944;2023-03-01T09:38:33;14.13;;;10.73;;
10246;SDS011;5168;47.854;7.944;2023-03-01T09:40:59;14.87;;;10.33;;
10246;SDS011;5168;47.854;7.944;2023-03-01T09:46:19;14.10;;;10.13;;
10246;SDS011;5168;47.854;7.944;2023-03-01T09:51:25;12.17;;;9.00;;
10246;SDS011;5168;47.854;7.944;2023-03-01T09:53:55;14.87;;;9.97;;
10246;SDS011;5168;47.854;7.944;2023-03-01T09:56:46;16.20;;;11.50;;
10246;SDS011;5168;47.854;7.944;2023-03-01T10:05:04;14.10;;;10.37;;
10246;SDS011;5168;47.854;7.944;2023-03-01T10:07:55;15.13;;;11.30;;
10246;SDS011;5168;47.854;7.944;2023-03-01T10:13:08;14.27;;;10.53;;
10246;SDS011;5168;47.854;7.944;2023-03-01T10:15:43;13.60;;;10.33;;
10246;SDS011;5168;47.854;7.944;2023-03-01T10:18:15;14.67;;;9.80;;
10246;SDS011;5168;47.854;7.944;2023-03-01T10:23:16;13.60;;;10.37;;
10246;SDS011;5168;47.854;7.944;2023-03-01T10:25:44;12.47;;;9.53;;
10246;SDS011;5168;47.854;7.944;2023-03-01T10:28:30;11.90;;;8.93;;
10246;SDS011;5168;47.854;7.944;2023-03-01T10:31:04;13.03;;;9.67;;
10246;SDS011;5168;47.854;7.944;2023-03-01T10:33:37;14.77;;;10.03;;
10246;SDS011;5168;47.854;7.944;2023-03-01T10:36:04;11.87;;;8.63;;
10246;SDS011;5168;47.854;7.944;2023-03-01T10:38:31;12.10;;;9.43;;
10246;SDS011;5168;47.854;7.944;2023-03-01T10:41:19;10.80;;;9.23;;
10246;SDS011;5168;47.854;7.944;2023-03-01T10:51:45;11.40;;;9.33;;
10246;SDS011;5168;47.854;7.944;2023-03-01T10:54:24;14.13;;;9.47;;
10246;SDS011;5168;47.854;7.944;2023-03-01T10:56:55;11.10;;;8.87;;
10246;SDS011;5168;47.854;7.944;2023-03-01T10:59:29;10.93;;;9.03;;
10246;SDS011;5168;47.854;7.944;2023-03-01T11:05:01;12.47;;;8.97;;
10246;SDS011;5168;47.854;7.944;2023-03-01T11:07:55;12.67;;;8.70;;
10246;SDS011;5168;47.854;7.944;2023-03-01T11:10:23;10.10;;;8.27;;
10246;SDS011;5168;47.854;7.944;2023-03-01T11:16:06;12.80;;;8.97;;
10246;SDS011;5168;47.854;7.944;2023-03-01T11:18:31;11.70;;;8.83;;
10246;SDS011;5168;47.854;7.944;2023-03-01T11:20:58;11.23;;;9.10;;
10246;SDS011;5168;47.854;7.944;2023-03-01T11:23:27;14.13;;;9.20;;
10246;SDS011;5168;47.854;7.944;2023-03-01T11:25:55;9.17;;;8.10;;
10246;SDS011;5168;47.854;7.944;2023-03-01T11:28:24;9.10;;;7.43;;
10246;SDS011;5168;47.854;7.944;2023-03-01T11:31:00;10.37;;;8.10;;
10246;SDS011;5168;47.854;7.944;2023-03-01T11:33:34;10.73;;;8.07;;
10246;SDS011;5168;47.854;7.944;2023-03-01T11:36:16;9.13;;;7.77;;
10246;SDS011;5168;47.854;7.944;2023-03-01T11:38:51;9.70;;;8.00;;
10246;SDS011;5168;47.854;7.944;2023-03-01T11:44:27;12.03;;;8.33;;
10246;SDS011;5168;47.854;7.944;2023-03-01T11:52:25;9.07;;;7.90;;
10246;SDS011;5168;47.854;7.944;2023-03-01T12:10:44;8.57;;;7.57;;
10246;SDS011;5168;47.854;7.944;2023-03-01T12:22:30;10.63;;;8.60;;
10246;SDS011;5168;47.854;7.944;2023-03-01T12:30:16;12.17;;;9.23;;
10246;SDS011;5168;47.854;7.944;2023-03-01T12:33:29;10.20;;;7.87;;
10246;SDS011;5168;47.854;7.944;2023-03-01T12:38:40;9.80;;;8.33;;
10246;SDS011;5168;47.854;7.944;2023-03-01T12:46:52;11.23;;;8.17;;
10246;SDS011;5168;47.854;7.944;2023-03-01T12:49:48;10.00;;;7.93;;
10246;SDS011;5168;47.854;7.944;2023-03-01T12:55:16;8.60;;;7.33;;
10246;SDS011;5168;47.854;7.944;2023-03-01T12:58:16;8.20;;;7.03;;
10246;SDS011;5168;47.854;7.944;2023-03-01T13:01:00;9.03;;;7.77;;
10246;SDS011;5168;47.854;7.944;2023-03-01T13:17:47;9.03;;;7.37;;
10246;SDS011;5168;47.854;7.944;2023-03-01T13:20:18;12.33;;;7.70;;
10246;SDS011;5168;47.854;7.944;2023-03-01T13:22:46;9.67;;;8.03;;
10246;SDS011;5168;47.854;7.944;2023-03-01T13:25:19;9.33;;;8.33;;
10246;SDS011;5168;47.854;7.944;2023-03-01T13:27:45;11.60;;;8.67;;
10246;SDS011;5168;47.854;7.944;2023-03-01T13:30:57;10.10;;;8.50;;
10246;SDS011;5168;47.854;7.944;2023-03-01T13:35:50;10.73;;;8.43;;
10246;SDS011;5168;47.854;7.944;2023-03-01T13:41:02;9.70;;;7.93;;
10246;SDS011;5168;47.854;7.944;2023-03-01T13:43:29;9.93;;;8.27;;
10246;SDS011;5168;47.854;7.944;2023-03-01T13:45:56;9.53;;;8.33;;
10246;SDS011;5168;47.854;7.944;2023-03-01T13:48:27;11.80;;;9.10;;
10246;SDS011;5168;47.854;7.944;2023-03-01T13:51:02;9.93;;;8.40;;
10246;SDS011;5168;47.854;7.944;2023-03-01T13:53:34;10.37;;;8.60;;
10246;SDS011;5168;47.854;7.944;2023-03-01T13:56:08;11.10;;;7.93;;
10246;SDS011;5168;47.854;7.944;2023-03-01T13:58:53;10.10;;;8.57;;
10246;SDS011;5168;47.854;7.944;2023-03-01T14:01:33;9.37;;;8.10;;
10246;SDS011;5168;47.854;7.944;2023-03-01T14:04:00;10.63;;;9.27;;
10246;SDS011;5168;47.854;7.944;2023-03-01T14:06:28;9.70;;;8.27;;
10246;SDS011;5168;47.854;7.944;2023-03-01T14:09:09;10.57;;;8.53;;
10246;SDS011;5168;47.854;7.944;2023-03-01T14:18:25;12.20;;;9.10;;
10246;SDS011;5168;47.854;7.944;2023-03-01T14:20:38;10.10;;;8.47;;
10246;SDS011;5168;47.854;7.944;2023-03-01T14:23:10;10.50;;;8.00;;
10246;SDS011;5168;47.854;7.944;2023-03-01T14:25:37;9.93;;;8.07;;
10246;SDS011;5168;47.854;7.944;2023-03-01T14:28:44;12.23;;;9.23;;
10246;SDS011;5168;47.854;7.944;2023-03-01T14:31:05;11.33;;;8.97;;
10246;SDS011;5168;47.854;7.944;2023-03-01T14:34:18;10.70;;;9.00;;
10246;SDS011;5168;47.854;7.944;2023-03-01T14:36:45;12.63;;;9.60;;
10246;SDS011;5168;47.854;7.944;2023-03-01T14:39:18;11.80;;;9.47;;
10246;SDS011;5168;47.854;7.944;2023-03-01T14:41:48;12.53;;;9.17;;
10246;SDS011;5168;47.854;7.944;2023-03-01T14:44:16;12.63;;;10.13;;
10246;SDS011;5168;47.854;7.944;2023-03-01T14:46:51;12.77;;;10.03;;
10246;SDS011;5168;47.854;7.944;2023-03-01T14:49:22;11.30;;;9.10;;
10246;SDS011;5168;47.854;7.944;2023-03-01T14:52:00;12.27;;;9.37;;
10246;SDS011;5168;47.854;7.944;2023-03-01T14:54:40;11.83;;;10.17;;
10246;SDS011;5168;47.854;7.944;2023-03-01T14:57:14;15.47;;;10.37;;
10246;SDS011;5168;47.854;7.944;2023-03-01T14:59:46;13.07;;;10.17;;
10246;SDS011;5168;47.854;7.944;2023-03-01T15:02:15;13.70;;;9.90;;
10246;SDS011;5168;47.854;7.944;2023-03-01T15:04:45;14.30;;;9.37;;
10246;SDS011;5168;47.854;7.944;2023-03-01T15:07:13;15.93;;;9.33;;
10246;SDS011;5168;47.854;7.944;2023-03-01T15:09:39;11.20;;;9.80;;
10246;SDS011;5168;47.854;7.944;2023-03-01T15:17:59;16.60;;;10.87;;
10246;SDS011;5168;47.854;7.944;2023-03-01T15:20:28;11.53;;;9.40;;
10246;SDS011;5168;47.854;7.944;2023-03-01T15:22:57;14.77;;;10.60;;
10246;SDS011;5168;47.854;7.944;2023-03-01T15:25:25;13.97;;;10.40;;
10246;SDS011;5168;47.854;7.944;2023-03-01T15:27:54;16.13;;;10.77;;
10246;SDS011;5168;47.854;7.944;2023-03-01T15:30:22;11.83;;;10.63;;
10246;SDS011;5168;47.854;7.944;2023-03-01T15:35:58;13.83;;;9.77;;
10246;SDS011;5168;47.854;7.944;2023-03-01T15:38:35;12.03;;;10.20;;
10246;SDS011;5168;47.854;7.944;2023-03-01T15:41:28;14.00;;;10.60;;
10246;SDS011;5168;47.854;7.944;2023-03-01T15:43:57;12.77;;;10.50;;
10246;SDS011;5168;47.854;7.944;2023-03-01T15:46:39;13.67;;;11.23;;
10246;SDS011;5168;47.854;7.944;2023-03-01T15:51:51;12.40;;;10.27;;
10246;SDS011;5168;47.854;7.944;2023-03-01T15:54:20;14.63;;;10.10;;
10246;SDS011;5168;47.854;7.944;2023-03-01T15:56:48;13.93;;;9.83;;
10246;SDS011;5168;47.854;7.944;2023-03-01T15:59:15;12.77;;;10.17;;
10246;SDS011;5168;47.854;7.944;2023-03-01T16:01:41;13.20;;;9.20;;
10246;SDS011;5168;47.854;7.944;2023-03-01T16:04:12;13.83;;;9.13;;
10246;SDS011;5168;47.854;7.944;2023-03-01T16:06:45;13.50;;;10.50;;
10246;SDS011;5168;47.854;7.944;2023-03-01T16:09:11;15.13;;;10.80;;
10246;SDS011;5168;47.854;7.944;2023-03-01T16:11:37;16.27;;;10.67;;
10246;SDS011;5168;47.854;7.944;2023-03-01T16:14:05;14.23;;;11.00;;
10246;SDS011;5168;47.854;7.944;2023-03-01T16:16:31;11.63;;;10.40;;
10246;SDS011;5168;47.854;7.944;2023-03-01T16:18:57;10.87;;;8.70;;
10246;SDS011;5168;47.854;7.944;2023-03-01T16:21:24;15.80;;;10.53;;
10246;SDS011;5168;47.854;7.944;2023-03-01T16:23:50;13.93;;;9.73;;
10246;SDS011;5168;47.854;7.944;2023-03-01T16:26:17;14.57;;;10.93;;
10246;SDS011;5168;47.854;7.944;2023-03-01T16:28:44;15.20;;;11.17;;
10246;SDS011;5168;47.854;7.944;2023-03-01T16:31:10;12.93;;;10.40;;
10246;SDS011;5168;47.854;7.944;2023-03-01T16:33:36;15.10;;;10.40;;
10246;SDS011;5168;47.854;7.944;2023-03-01T16:36:06;11.87;;;9.53;;
10246;SDS011;5168;47.854;7.944;2023-03-01T16:38:34;15.33;;;10.47;;
10246;SDS011;5168;47.854;7.944;2023-03-01T16:40:59;15.20;;;11.00;;
10246;SDS011;5168;47.854;7.944;2023-03-01T16:43:25;12.67;;;10.13;;
10246;SDS011;5168;47.854;7.944;2023-03-01T16:45:51;14.07;;;10.03;;
10246;SDS011;5168;47.854;7.944;2023-03-01T16:48:17;14.27;;;10.60;;
10246;SDS011;5168;47.854;7.944;2023-03-01T16:50:43;12.63;;;10.17;;
10246;SDS011;5168;47.854;7.944;2023-03-01T16:53:08;12.40;;;9.33;;
10246;SDS011;5168;47.854;7.944;2023-03-01T16:55:34;12.93;;;9.67;;
10246;SDS011;5168;47.854;7.944;2023-03-01T16:58:00;15.30;;;10.13;;
10246;SDS011;5168;47.854;7.944;2023-03-01T17:00:26;15.43;;;10.43;;
10246;SDS011;5168;47.854;7.944;2023-03-01T17:02:52;15.00;;;10.70;;
10246;SDS011;5168;47.854;7.944;2023-03-01T17:05:18;16.10;;;10.53;;